createdAt,value
2019-06-07T00:00:32.171Z,93.74
2019-06-07T00:02:46.961Z,93.60
2019-06-07T00:05:21.789Z,92.31
2019-06-07T00:08:07.804Z,91.71
2019-06-07T00:10:45.660Z,92.04
2019-06-07T00:13:21.071Z,91.41
2019-06-07T00:15:53.236Z,91.56
2019-06-07T00:18:30.470Z,91.62
2019-06-07T00:21:02.713Z,92.22
2019-06-07T00:23:34.713Z,91.00
2019-06-07T00:26:06.585Z,90.73
2019-06-07T00:28:37.999Z,90.97
2019-06-07T00:31:11.542Z,90.81
2019-06-07T00:33:43.251Z,91.23
2019-06-07T00:36:17.583Z,91.66
2019-06-07T00:38:47.776Z,91.34
2019-06-07T00:41:23.794Z,90.86
2019-06-07T00:43:56.034Z,90.65
2019-06-07T00:46:29.254Z,91.27
2019-06-07T00:49:00.832Z,91.70
2019-06-07T00:51:49.887Z,92.06
2019-06-07T00:54:14.602Z,92.40
2019-06-07T00:56:44.302Z,92.40
2019-06-07T00:59:19.136Z,92.68
2019-06-07T01:01:50.500Z,92.80
2019-06-07T01:04:27.269Z,92.60
2019-06-07T01:07:01.801Z,92.72
2019-06-07T01:09:34.940Z,92.94
2019-06-07T01:12:06.621Z,92.95
2019-06-07T01:14:38.921Z,92.47
2019-06-07T01:17:39.859Z,91.74
2019-06-07T01:19:58.688Z,91.33
2019-06-07T01:22:30.145Z,90.82
2019-06-07T01:25:03.487Z,90.76
2019-06-07T01:27:35.770Z,90.37
2019-06-07T01:30:09.139Z,89.92
2019-06-07T01:32:43.170Z,89.98
2019-06-07T01:35:21.414Z,89.20
2019-06-07T01:37:53.873Z,88.89
2019-06-07T01:40:31.926Z,88.74
2019-06-07T01:43:00.298Z,89.29
2019-06-07T01:45:31.654Z,89.24
2019-06-07T01:48:06.523Z,88.44
2019-06-07T01:50:37.906Z,88.55
2019-06-07T01:53:11.710Z,89.21
2019-06-07T01:55:44.025Z,89.73
2019-06-07T01:58:17.103Z,90.06
2019-06-07T02:00:49.259Z,90.23
2019-06-07T02:03:29.372Z,90.85
2019-06-07T02:06:02.413Z,92.53
2019-06-07T02:08:41.838Z,92.73
2019-06-07T02:11:13.454Z,92.65
2019-06-07T02:13:44.966Z,92.45
2019-06-07T02:16:16.378Z,92.70
2019-06-07T02:19:01.221Z,92.44
2019-06-07T02:21:24.707Z,92.76
2019-06-07T02:23:57.936Z,92.90
2019-06-07T02:26:32.579Z,92.89
2019-06-07T02:29:05.030Z,93.28
2019-06-07T02:31:42.102Z,94.41
2019-06-07T02:34:15.722Z,94.72
2019-06-07T02:36:50.362Z,95.45
2019-06-07T02:39:30.894Z,96.15
2019-06-07T02:41:59.989Z,98.10
2019-06-07T02:44:44.298Z,98.08
2019-06-07T02:47:35.948Z,98.38
2019-06-07T02:49:57.459Z,98.69
2019-06-07T02:52:46.463Z,99.23
2019-06-07T02:56:10.811Z,98.90
2019-06-07T02:58:05.918Z,100.00
2019-06-07T03:01:06.749Z,100.00
2019-06-07T03:03:24.506Z,99.51
2019-06-07T03:06:03.132Z,98.89
2019-06-07T03:08:47.395Z,98.35
2019-06-07T03:11:28.225Z,97.77
2019-06-07T03:14:01.629Z,97.29
2019-06-07T03:16:40.047Z,96.77
2019-06-07T03:22:19.906Z,95.88
2019-06-07T03:24:54.459Z,94.61
2019-06-07T03:27:36.200Z,94.17
2019-06-07T03:30:00.245Z,94.18
2019-06-07T03:32:36.863Z,93.98
2019-06-07T03:35:06.580Z,93.66
2019-06-07T03:37:42.295Z,93.62
2019-06-07T03:40:11.401Z,93.21
2019-06-07T03:42:43.526Z,92.61
2019-06-07T03:45:15.798Z,91.47
2019-06-07T03:47:47.830Z,90.86
2019-06-07T03:50:19.782Z,89.98
2019-06-07T03:52:51.859Z,89.15
2019-06-07T03:55:24.287Z,88.38
2019-06-07T04:00:31.168Z,88.53
2019-06-07T04:03:32.376Z,88.58
2019-06-07T04:05:53.741Z,88.93
2019-06-07T04:08:33.540Z,89.47
2019-06-07T04:11:16.803Z,89.60
2019-06-07T04:13:54.443Z,89.47
2019-06-07T04:16:40.431Z,89.60
2019-06-07T04:19:13.330Z,89.78
2019-06-07T04:21:57.951Z,90.04
2019-06-07T04:24:36.579Z,90.20
2019-06-07T04:27:10.724Z,87.96
2019-06-07T04:30:06.633Z,85.75
2019-06-07T04:32:31.660Z,86.03
2019-06-07T04:35:13.069Z,84.56
2019-06-07T04:38:01.761Z,85.25
2019-06-07T04:40:42.797Z,85.97
2019-06-07T04:43:21.824Z,84.87
2019-06-07T04:45:56.209Z,84.10
2019-06-07T04:48:54.290Z,83.94
2019-06-07T04:51:37.143Z,83.00
2019-06-07T04:54:19.104Z,83.17
2019-06-07T04:57:16.138Z,83.56
2019-06-07T05:00:22.618Z,84.08
2019-06-07T05:02:29.549Z,83.42
2019-06-07T05:05:06.551Z,83.30
2019-06-07T05:07:45.941Z,83.45
2019-06-07T05:10:26.776Z,82.94
2019-06-07T05:13:10.877Z,82.83
2019-06-07T05:15:51.995Z,83.14
2019-06-07T05:18:33.712Z,82.28
2019-06-07T05:21:22.948Z,82.23
2019-06-07T05:24:12.954Z,82.28
2019-06-07T05:26:55.505Z,81.70
2019-06-07T05:29:44.387Z,80.00
2019-06-07T05:32:19.125Z,78.34
2019-06-07T05:35:03.567Z,76.77
2019-06-07T05:37:50.295Z,75.46
2019-06-07T05:40:48.830Z,74.54
2019-06-07T05:43:39.219Z,73.72
2019-06-07T05:46:24.638Z,73.65
2019-06-07T05:49:10.336Z,73.97
2019-06-07T05:51:53.476Z,73.55
2019-06-07T05:54:45.528Z,73.10
2019-06-07T05:57:36.940Z,73.10
2019-06-07T06:00:15.280Z,72.42
2019-06-07T06:03:05.721Z,70.10
2019-06-07T06:05:54.619Z,68.63
2019-06-07T06:08:50.952Z,68.18
2019-06-07T06:11:43.350Z,68.29
2019-06-07T06:14:47.043Z,67.71
2019-06-07T06:17:41.385Z,66.71
2019-06-07T06:20:54.482Z,67.08
2019-06-07T06:23:01.652Z,66.40
2019-06-07T06:25:34.404Z,65.79
2019-06-07T06:28:12.292Z,66.27
2019-06-07T06:30:41.218Z,66.46
2019-06-07T06:33:30.448Z,66.23
2019-06-07T06:35:49.419Z,66.71
2019-06-07T06:38:21.068Z,67.75
2019-06-07T06:41:11.725Z,67.79
2019-06-07T06:43:25.503Z,67.65
2019-06-07T06:45:57.583Z,67.69
2019-06-07T06:48:29.750Z,67.23
2019-06-07T06:51:01.901Z,67.50
2019-06-07T06:53:34.353Z,67.27
2019-06-07T06:56:06.412Z,65.79
2019-06-07T06:59:21.531Z,64.59
2019-06-07T07:01:12.371Z,65.27
2019-06-07T07:04:00.809Z,66.45
2019-06-07T07:06:26.921Z,67.01
2019-06-07T07:08:53.724Z,67.49
2019-06-07T07:11:25.124Z,69.12
2019-06-07T07:13:57.075Z,66.12
2019-06-07T07:16:28.508Z,64.81
2019-06-07T07:19:00.424Z,63.31
2019-06-07T07:21:31.838Z,61.58
2019-06-07T07:24:20.266Z,61.13
2019-06-07T07:26:36.916Z,61.87
2019-06-07T07:29:08.947Z,62.38
2019-06-07T07:31:40.983Z,62.78
2019-06-07T07:41:21.523Z,64.62
2019-06-07T07:48:08.244Z,64.89
2019-06-07T07:50:26.589Z,63.71
2019-06-07T07:53:00.682Z,63.24
2019-06-07T07:55:32.547Z,64.01
2019-06-07T07:58:04.675Z,63.80
2019-06-07T08:01:07.744Z,64.16
2019-06-07T08:03:28.023Z,63.84
2019-06-07T08:06:00.235Z,64.22
2019-06-07T08:08:31.687Z,65.22
2019-06-07T08:11:02.960Z,64.68
2019-06-07T08:13:35.056Z,64.53
2019-06-07T08:16:12.419Z,63.33
2019-06-07T08:18:39.476Z,63.11
2019-06-07T08:21:24.363Z,63.55
2019-06-07T08:23:47.397Z,62.67
2019-06-07T08:26:18.882Z,62.19
2019-06-07T08:28:55.890Z,61.85
2019-06-07T08:31:24.832Z,61.23
2019-06-07T08:33:58.909Z,61.47
2019-06-07T08:36:41.175Z,62.00
2019-06-07T08:39:07.522Z,60.94
2019-06-07T08:41:37.739Z,58.04
2019-06-07T08:44:23.202Z,55.97
2019-06-07T08:46:44.003Z,54.42
2019-06-07T08:49:16.044Z,55.00
2019-06-07T08:51:48.176Z,54.61
2019-06-07T08:54:23.204Z,54.46
2019-06-07T08:57:06.424Z,54.48
2019-06-07T08:59:27.848Z,53.78
2019-06-07T09:02:06.589Z,53.43
2019-06-07T09:04:34.762Z,53.30
2019-06-07T09:07:18.797Z,53.28
2019-06-07T09:09:39.973Z,53.27
2019-06-07T09:12:11.784Z,53.36
2019-06-07T09:14:59.938Z,51.46
2019-06-07T09:17:17.099Z,50.91
2019-06-07T09:19:49.106Z,50.56
2019-06-07T09:22:21.347Z,51.34
2019-06-07T09:25:00.200Z,52.53
2019-06-07T09:27:28.651Z,52.96
2019-06-07T09:30:07.623Z,52.60
2019-06-07T09:32:35.198Z,52.92
2019-06-07T09:35:12.378Z,52.90
2019-06-07T09:40:27.535Z,53.26
2019-06-07T09:43:47.484Z,53.47
2019-06-07T09:45:31.970Z,53.12
2019-06-07T09:48:13.874Z,52.34
2019-06-07T09:50:40.804Z,50.73
2019-06-07T09:53:21.678Z,49.66
2019-06-07T09:55:47.071Z,49.35
2019-06-07T09:58:50.488Z,48.67
2019-06-07T10:00:52.459Z,48.00
2019-06-07T10:03:26.322Z,48.38
2019-06-07T10:05:59.724Z,48.00
2019-06-07T10:09:42.321Z,47.27
2019-06-07T10:11:09.156Z,48.61
2019-06-07T10:13:42.938Z,47.50
2019-06-07T10:16:14.986Z,46.06
2019-06-07T10:18:46.375Z,44.81
2019-06-07T10:21:18.602Z,45.87
2019-06-07T10:23:56.311Z,46.20
2019-06-07T10:26:33.670Z,45.87
2019-06-07T10:29:06.794Z,46.52
2019-06-07T10:31:40.807Z,45.47
2019-06-07T10:34:16.006Z,44.58
2019-06-07T10:36:51.421Z,44.36
2019-06-07T10:39:26.866Z,43.87
2019-06-07T10:42:13.378Z,43.53
2019-06-07T10:44:46.168Z,43.70
2019-06-07T10:47:18.319Z,43.66
2019-06-07T10:49:50.374Z,45.85
2019-06-07T10:52:32.710Z,46.50
2019-06-07T10:55:05.059Z,45.86
2019-06-07T10:57:37.322Z,42.91
2019-06-07T11:00:11.780Z,45.03
2019-06-07T11:02:49.954Z,45.82
2019-06-07T11:05:22.927Z,43.09
2019-06-07T11:07:55.522Z,41.79
2019-06-07T11:10:30.814Z,42.38
2019-06-07T11:13:04.223Z,40.86
2019-06-07T11:15:35.705Z,39.80
2019-06-07T11:18:10.254Z,40.23
2019-06-07T11:20:48.108Z,41.42
2019-06-07T11:23:20.838Z,43.48
2019-06-07T11:26:08.400Z,44.05
2019-06-07T11:29:19.203Z,43.98
2019-06-07T11:32:02.721Z,43.25
2019-06-07T11:34:36.578Z,43.40
2019-06-07T11:41:05.101Z,43.96
2019-06-07T11:43:54.745Z,43.72
2019-06-07T11:46:28.065Z,45.21
2019-06-07T11:52:33.537Z,48.26
2019-06-07T11:55:09.354Z,47.83
2019-06-07T11:57:43.279Z,47.26
2019-06-07T12:00:18.750Z,48.23
2019-06-07T12:02:51.035Z,46.90
2019-06-07T12:05:22.561Z,46.37
2019-06-07T12:07:57.183Z,46.10
2019-06-07T12:10:41.801Z,44.91
2019-06-07T12:13:03.080Z,44.49
2019-06-07T12:15:35.429Z,43.45
2019-06-07T12:18:06.989Z,45.52
2019-06-07T12:20:39.364Z,47.56
2019-06-07T12:23:12.026Z,47.96
2019-06-07T12:25:43.383Z,48.99
2019-06-07T12:28:14.845Z,48.28
2019-06-07T12:30:47.009Z,46.64
2019-06-07T12:33:19.710Z,46.61
2019-06-07T12:39:46.344Z,46.17
2019-06-07T12:42:45.427Z,45.59
2019-06-07T12:45:40.161Z,45.90
2019-06-07T12:47:55.333Z,45.90
2019-06-07T12:50:41.740Z,45.16
2019-06-07T12:52:59.914Z,43.92
2019-06-07T12:55:31.321Z,44.09
2019-06-07T12:58:02.700Z,44.69
2019-06-07T13:00:34.020Z,44.85
2019-06-07T13:03:06.659Z,45.15
2019-06-07T13:05:39.817Z,45.65
2019-06-07T13:08:12.291Z,46.86
2019-06-07T13:10:43.906Z,47.25
2019-06-07T13:13:15.788Z,46.46
2019-06-07T13:15:48.053Z,46.28
2019-06-07T13:18:21.620Z,47.39
2019-06-07T13:20:55.484Z,49.60
2019-06-07T13:23:29.013Z,48.81
2019-06-07T13:26:45.806Z,48.46
2019-06-07T13:29:52.013Z,47.25
2019-06-07T14:27:31.912Z,46.88
2019-06-07T14:30:57.879Z,47.95
2019-06-07T14:33:47.352Z,47.22
2019-06-07T14:37:04.229Z,47.84
2019-06-07T14:41:29.651Z,47.60
2019-06-07T14:45:05.739Z,47.34
2019-06-07T14:48:01.980Z,46.11
2019-06-07T14:51:04.885Z,47.22
2019-06-07T14:54:21.426Z,48.72
2019-06-07T14:57:10.804Z,48.34
2019-06-07T15:05:01.917Z,48.30
2019-06-07T17:18:25.498Z,44.82
2019-06-07T17:20:59.527Z,45.77
2019-06-07T17:23:31.599Z,45.49
2019-06-07T17:26:03.944Z,44.62
2019-06-07T17:28:36.032Z,44.90
2019-06-07T17:31:08.020Z,45.57
2019-06-07T17:33:40.083Z,44.87
2019-06-07T17:36:12.197Z,45.98
2019-06-07T17:38:44.550Z,45.56
2019-06-07T17:41:16.692Z,45.84
2019-06-07T17:43:57.802Z,45.77
2019-06-07T17:46:22.662Z,45.99
2019-06-07T17:48:54.827Z,45.94
2019-06-07T17:51:26.971Z,46.38
2019-06-07T17:53:59.274Z,47.29
2019-06-07T17:56:31.534Z,47.53
2019-06-07T17:59:03.587Z,48.11
2019-06-07T18:01:41.560Z,47.60
2019-06-07T18:04:11.778Z,48.96
2019-06-07T18:06:45.395Z,49.67
2019-06-07T18:09:17.484Z,50.13
2019-06-07T18:11:49.999Z,50.99
2019-06-07T18:14:22.494Z,52.07
2019-06-07T18:16:54.895Z,52.94
2019-06-07T18:19:27.090Z,53.05
2019-06-07T18:21:59.267Z,53.54
2019-06-07T18:24:31.539Z,54.04
2019-06-07T18:27:06.989Z,54.31
2019-06-07T18:29:37.714Z,54.62
2019-06-07T18:32:13.355Z,55.06
2019-06-07T18:34:44.035Z,55.53
2019-06-07T18:37:16.530Z,56.39
2019-06-07T18:42:56.999Z,57.57
2019-06-07T18:45:30.771Z,57.48
2019-06-07T18:48:03.034Z,58.03
2019-06-07T18:50:36.762Z,58.42
2019-06-07T18:53:08.195Z,58.83
2019-06-07T18:55:40.696Z,59.34
2019-06-07T18:58:12.336Z,59.90
2019-06-07T19:00:44.607Z,60.01
2019-06-07T19:03:18.512Z,60.27
2019-06-07T19:05:51.981Z,61.52
2019-06-07T19:08:25.172Z,61.21
2019-06-07T19:11:00.769Z,62.12
2019-06-07T19:13:38.237Z,62.33
2019-06-07T19:16:27.362Z,62.75
2019-06-07T19:18:57.911Z,63.48
2019-06-07T19:21:33.877Z,63.95
2019-06-07T19:24:05.454Z,63.62
2019-06-07T19:26:38.166Z,63.72
2019-06-07T19:29:12.671Z,64.44
2019-06-07T19:31:44.133Z,64.86
2019-06-07T19:34:15.471Z,65.85
2019-06-07T19:36:49.010Z,65.85
2019-06-07T19:39:21.429Z,65.74
2019-06-07T19:41:53.974Z,67.13
2019-06-07T19:44:25.495Z,68.12
2019-06-07T19:46:58.498Z,68.41
2019-06-07T19:49:30.797Z,70.00
2019-06-07T19:52:03.305Z,70.82
2019-06-07T19:54:35.512Z,70.80
2019-06-07T19:57:07.577Z,71.89
2019-06-07T19:59:38.949Z,72.52
2019-06-07T20:02:11.025Z,72.55
2019-06-07T20:04:43.040Z,73.51
2019-06-07T20:07:20.039Z,73.72
2019-06-07T20:09:54.455Z,74.26
2019-06-07T20:12:35.650Z,74.56
2019-06-07T20:15:49.142Z,75.48
2019-06-07T20:18:34.343Z,75.78
2019-06-07T20:21:58.782Z,76.54
2019-06-07T20:28:09.422Z,77.63
2019-06-07T20:31:06.397Z,77.85
2019-06-07T20:37:45.146Z,78.23
2019-06-07T20:40:34.513Z,78.41
2019-06-07T20:43:18.772Z,78.37
2019-06-07T20:45:46.786Z,79.16
2019-06-07T20:48:23.425Z,80.19
2019-06-07T20:51:37.369Z,79.76
2019-06-07T20:54:09.190Z,80.22
2019-06-07T20:56:40.805Z,80.64
2019-06-07T20:59:14.773Z,80.49
2019-06-07T21:01:50.780Z,81.18
2019-06-07T21:04:22.809Z,80.81
2019-06-07T21:10:12.206Z,80.96
2019-06-07T21:12:44.372Z,81.40
2019-06-07T21:15:15.992Z,83.03
2019-06-07T21:17:47.474Z,82.76
2019-06-07T21:20:19.143Z,82.50
2019-06-07T21:22:56.260Z,83.12
2019-06-07T21:25:24.765Z,83.12
2019-06-07T21:27:56.306Z,83.40
2019-06-07T21:30:49.169Z,83.64
2019-06-07T21:33:20.340Z,83.48
2019-06-07T21:35:52.464Z,85.23
2019-06-07T21:38:24.169Z,84.60
2019-06-07T21:40:55.445Z,84.31
2019-06-07T21:43:31.536Z,85.08
2019-06-07T21:46:07.291Z,85.37
2019-06-07T21:48:37.440Z,84.79
2019-06-07T21:51:08.849Z,85.37
2019-06-07T21:53:42.200Z,85.56
2019-06-07T21:56:13.594Z,85.57
2019-06-07T21:58:44.920Z,86.11
2019-06-07T22:01:26.024Z,86.70
2019-06-07T22:03:57.392Z,86.68
2019-06-07T22:06:28.665Z,86.89
2019-06-07T22:09:00.065Z,87.35
2019-06-07T22:11:32.053Z,87.84
2019-06-07T22:14:04.465Z,87.59
2019-06-07T22:16:35.856Z,88.20
2019-06-07T22:19:08.672Z,88.83
2019-06-07T22:21:40.158Z,87.82
2019-06-07T22:24:13.093Z,87.84
2019-06-07T22:26:44.520Z,88.50
2019-06-07T22:29:15.868Z,88.38
2019-06-07T22:31:47.804Z,89.23
2019-06-07T22:34:19.843Z,89.19
2019-06-07T22:36:51.888Z,89.63
2019-06-07T22:39:24.062Z,89.95
2019-06-07T22:41:57.474Z,89.72
2019-06-07T22:44:28.397Z,90.24
2019-06-07T22:47:00.748Z,89.56
2019-06-07T22:49:32.132Z,89.49
2019-06-07T22:52:08.899Z,89.23
2019-06-07T22:54:37.605Z,89.68
2019-06-07T22:57:18.853Z,89.93
2019-06-07T22:59:50.262Z,89.66
2019-06-07T23:02:21.594Z,89.60
2019-06-07T23:04:53.624Z,89.66
2019-06-07T23:07:25.747Z,90.87
2019-06-07T23:10:00.709Z,90.36
2019-06-07T23:12:41.178Z,91.88
2019-06-07T23:15:15.884Z,92.09
2019-06-07T23:17:47.855Z,94.43
2019-06-07T23:20:20.147Z,93.22
2019-06-07T23:22:51.457Z,92.51
2019-06-07T23:25:24.687Z,93.55
2019-06-07T23:28:02.117Z,93.06
2019-06-07T23:30:35.479Z,94.56
2019-06-07T23:33:07.445Z,94.24
2019-06-07T23:35:39.400Z,94.31
2019-06-07T23:38:11.368Z,94.50
2019-06-07T23:40:43.371Z,94.44
2019-06-07T23:43:21.831Z,95.04
2019-06-07T23:45:53.143Z,95.04
2019-06-07T23:48:24.445Z,95.33
2019-06-07T23:50:55.675Z,95.99
2019-06-07T23:53:27.763Z,95.88
2019-06-07T23:56:01.476Z,96.55
2019-06-07T23:58:32.838Z,96.60
